createdAt,value
2023-05-22T00:02:33.098Z,48.52
2023-05-22T00:05:18.467Z,48.87
2023-05-22T00:08:01.478Z,48.89
2023-05-22T00:10:44.327Z,48.80
2023-05-22T00:13:27.227Z,48.96
2023-05-22T00:16:10.066Z,49.17
2023-05-22T00:18:55.331Z,48.84
2023-05-22T00:21:38.168Z,49.06
2023-05-22T00:24:21.055Z,49.08
2023-05-22T00:27:03.935Z,49.27
2023-05-22T00:29:46.805Z,48.97
2023-05-22T00:32:29.971Z,49.04
2023-05-22T00:35:14.256Z,49.28
2023-05-22T00:37:57.495Z,49.24
2023-05-22T00:40:40.754Z,49.39
2023-05-22T00:43:23.861Z,49.39
2023-05-22T00:46:07.612Z,49.47
2023-05-22T00:48:52.502Z,49.56
2023-05-22T00:51:36.808Z,49.88
2023-05-22T00:54:20.195Z,50.16
2023-05-22T00:57:03.630Z,49.79
2023-05-22T00:59:46.616Z,49.74
2023-05-22T01:02:32.994Z,49.79
2023-05-22T01:05:18.363Z,49.85
2023-05-22T01:08:02.899Z,50.00
2023-05-22T01:10:45.886Z,49.82
2023-05-22T01:13:35.424Z,49.74
2023-05-22T01:16:29.835Z,49.79
2023-05-22T01:19:23.652Z,50.00
2023-05-22T01:22:22.143Z,49.93
2023-05-22T01:25:26.715Z,50.06
2023-05-22T01:28:36.518Z,50.20
2023-05-22T01:31:25.566Z,49.99
2023-05-22T01:34:12.137Z,50.03
2023-05-22T01:36:57.448Z,50.04
2023-05-22T01:39:43.883Z,49.77
2023-05-22T01:42:27.111Z,49.97
2023-05-22T01:45:12.208Z,49.77
2023-05-22T01:47:56.524Z,49.89
2023-05-22T01:50:40.128Z,49.88
2023-05-22T01:53:32.495Z,49.49
2023-05-22T01:56:19.930Z,49.62
2023-05-22T01:59:14.985Z,49.76
2023-05-22T02:02:01.774Z,49.54
2023-05-22T02:04:49.966Z,49.28
2023-05-22T02:07:35.137Z,49.70
2023-05-22T02:10:19.598Z,49.56
2023-05-22T02:13:03.378Z,49.53
2023-05-22T02:15:47.031Z,49.67
2023-05-22T02:18:31.133Z,49.68
2023-05-22T02:21:15.463Z,49.38
2023-05-22T02:23:58.332Z,49.48
2023-05-22T02:26:42.496Z,49.32
2023-05-22T02:29:25.325Z,49.44
2023-05-22T02:32:09.204Z,49.42
2023-05-22T02:34:54.667Z,49.44
2023-05-22T02:37:39.203Z,49.30
2023-05-22T02:40:22.694Z,49.35
2023-05-22T02:43:06.456Z,49.43
2023-05-22T02:45:49.353Z,49.39
2023-05-22T02:48:33.430Z,49.56
2023-05-22T02:51:16.315Z,49.37
2023-05-22T02:54:00.540Z,49.38
2023-05-22T02:56:43.782Z,49.40
2023-05-22T02:59:26.929Z,49.13
2023-05-22T03:02:10.060Z,49.21
2023-05-22T03:04:53.181Z,49.03
2023-05-22T03:07:37.197Z,49.25
2023-05-22T03:10:21.564Z,49.09
2023-05-22T03:13:04.557Z,49.05
2023-05-22T03:15:47.452Z,49.29
2023-05-22T03:18:32.284Z,49.43
2023-05-22T03:21:15.104Z,49.19
2023-05-22T03:23:57.924Z,49.04
2023-05-22T03:26:42.203Z,49.18
2023-05-22T03:29:29.686Z,49.46
2023-05-22T03:32:12.667Z,49.43
2023-05-22T03:34:55.761Z,49.31
2023-05-22T03:37:38.662Z,49.50
2023-05-22T03:40:21.637Z,49.52
2023-05-22T03:43:05.868Z,49.50
2023-05-22T03:45:48.722Z,49.58
2023-05-22T03:48:32.298Z,49.25
2023-05-22T03:51:16.593Z,49.22
2023-05-22T03:54:00.368Z,49.17
2023-05-22T03:56:44.363Z,49.32
2023-05-22T03:59:28.581Z,49.14
2023-05-22T04:02:13.011Z,49.25
2023-05-22T04:04:56.087Z,49.39
2023-05-22T04:07:40.579Z,49.48
2023-05-22T04:10:23.701Z,49.71
2023-05-22T04:13:07.238Z,49.58
2023-05-22T04:15:52.935Z,49.93
2023-05-22T04:18:36.823Z,49.63
2023-05-22T04:21:20.246Z,50.06
2023-05-22T04:24:07.323Z,49.95
2023-05-22T04:26:50.588Z,50.09
2023-05-22T04:29:36.254Z,50.11
2023-05-22T04:32:21.868Z,50.07
2023-05-22T04:35:05.800Z,50.18
2023-05-22T04:37:48.665Z,50.38
2023-05-22T04:40:34.402Z,49.94
2023-05-22T04:43:18.855Z,50.25
2023-05-22T04:46:01.795Z,50.13
2023-05-22T04:48:47.224Z,50.08
2023-05-22T04:51:32.996Z,49.98
2023-05-22T04:54:15.877Z,50.20
2023-05-22T04:56:58.787Z,50.38
2023-05-22T04:59:42.439Z,50.54
2023-05-22T05:02:25.465Z,50.75
2023-05-22T05:05:10.620Z,50.70
2023-05-22T05:07:54.625Z,50.38
2023-05-22T05:10:37.879Z,50.55
2023-05-22T05:13:20.984Z,50.47
2023-05-22T05:16:04.378Z,50.31
2023-05-22T05:18:47.249Z,50.01
2023-05-22T05:21:31.631Z,49.97
2023-05-22T05:24:18.630Z,50.25
2023-05-22T05:27:02.704Z,50.15
2023-05-22T05:29:46.718Z,50.08
2023-05-22T05:32:41.934Z,49.86
2023-05-22T05:35:36.958Z,50.16
2023-05-22T05:38:26.062Z,50.12
2023-05-22T05:41:10.228Z,49.96
2023-05-22T05:43:53.911Z,50.22
2023-05-22T05:46:37.104Z,49.78
2023-05-22T05:49:20.946Z,50.12
2023-05-22T05:52:05.159Z,50.01
2023-05-22T05:54:52.468Z,49.61
2023-05-22T05:57:37.739Z,49.69
2023-05-22T06:00:24.149Z,49.36
2023-05-22T06:03:08.458Z,49.22
2023-05-22T06:06:07.238Z,49.72
2023-05-22T06:09:10.053Z,49.49
2023-05-22T06:12:14.259Z,48.98
2023-05-22T06:15:00.606Z,48.33
2023-05-22T06:17:43.709Z,48.33
2023-05-22T06:20:27.677Z,48.32
2023-05-22T06:23:11.344Z,48.17
2023-05-22T06:25:55.560Z,48.17
2023-05-22T06:28:41.479Z,47.60
2023-05-22T06:31:24.702Z,48.10
2023-05-22T06:34:11.127Z,47.93
2023-05-22T06:36:54.344Z,47.69
2023-05-22T06:39:41.429Z,47.30
2023-05-22T06:42:44.810Z,46.65
2023-05-22T06:45:38.608Z,46.52
2023-05-22T06:48:42.010Z,45.95
2023-05-22T06:51:29.943Z,46.04
2023-05-22T06:54:22.808Z,46.12
2023-05-22T06:57:11.622Z,45.55
2023-05-22T06:59:54.532Z,45.88
2023-05-22T07:02:57.059Z,45.77
2023-05-22T07:05:48.349Z,45.15
2023-05-22T07:08:31.330Z,45.21
2023-05-22T07:11:14.294Z,45.83
2023-05-22T07:13:57.685Z,45.23
2023-05-22T07:16:41.348Z,45.14
2023-05-22T07:19:26.732Z,44.94
2023-05-22T07:22:12.281Z,44.72
2023-05-22T07:24:56.251Z,44.22
2023-05-22T07:27:42.669Z,44.30
2023-05-22T07:30:27.837Z,43.81
2023-05-22T07:33:11.756Z,43.66
2023-05-22T07:35:56.624Z,43.84
2023-05-22T07:38:39.651Z,43.68
2023-05-22T07:41:24.124Z,43.61
2023-05-22T07:44:07.276Z,43.61
2023-05-22T07:46:54.406Z,42.81
2023-05-22T07:49:38.576Z,42.65
2023-05-22T07:52:24.281Z,42.16
2023-05-22T07:55:09.473Z,42.26
2023-05-22T07:57:54.963Z,42.34
2023-05-22T08:00:46.453Z,42.29
2023-05-22T08:06:12.359Z,41.80
2023-05-22T08:08:56.643Z,41.42
2023-05-22T08:11:42.178Z,41.77
2023-05-22T08:14:25.053Z,42.00
2023-05-22T08:17:08.069Z,41.71
2023-05-22T08:19:51.027Z,41.27
2023-05-22T08:22:34.715Z,41.32
2023-05-22T08:25:19.112Z,40.96
2023-05-22T08:28:02.054Z,41.44
2023-05-22T08:30:45.011Z,40.99
2023-05-22T08:33:28.218Z,40.36
2023-05-22T08:36:11.352Z,40.00
2023-05-22T08:38:54.192Z,40.33
2023-05-22T08:41:38.473Z,40.71
2023-05-22T08:44:22.075Z,40.18
2023-05-22T08:47:09.962Z,39.80
2023-05-22T08:49:54.879Z,37.84
2023-05-22T08:52:44.200Z,37.06
2023-05-22T08:55:27.791Z,37.85
2023-05-22T08:58:12.606Z,38.89
2023-05-22T09:00:55.694Z,38.05
2023-05-22T09:03:38.944Z,38.38
2023-05-22T09:06:21.917Z,38.69
2023-05-22T09:09:05.026Z,38.23
2023-05-22T09:11:47.988Z,38.05
2023-05-22T09:14:39.401Z,35.74
2023-05-22T09:17:22.411Z,36.94
2023-05-22T09:20:06.662Z,36.30
2023-05-22T09:22:49.655Z,35.92
2023-05-22T09:25:32.788Z,36.07
2023-05-22T09:28:15.884Z,36.19
2023-05-22T09:31:01.798Z,35.76
2023-05-22T09:33:46.211Z,35.40
2023-05-22T09:36:32.450Z,35.61
2023-05-22T09:39:15.601Z,35.76
2023-05-22T09:42:02.783Z,33.48
2023-05-22T09:44:50.128Z,34.22
2023-05-22T09:47:35.326Z,34.22
2023-05-22T09:50:18.577Z,34.04
2023-05-22T09:53:04.422Z,33.22
2023-05-22T09:55:49.508Z,33.39
2023-05-22T09:58:34.546Z,33.56
2023-05-22T10:01:18.581Z,32.17
2023-05-22T10:04:05.357Z,32.38
2023-05-22T10:06:52.260Z,32.55
2023-05-22T10:09:40.677Z,31.64
2023-05-22T10:12:25.822Z,30.82
2023-05-22T10:15:10.397Z,31.04
2023-05-22T10:17:53.279Z,30.07
2023-05-22T10:20:38.349Z,31.27
2023-05-22T10:23:22.519Z,30.97
2023-05-22T10:26:06.564Z,30.24
2023-05-22T10:28:54.883Z,30.14
2023-05-22T10:31:45.472Z,30.27
2023-05-22T10:34:52.680Z,29.67
2023-05-22T10:37:49.852Z,29.67
2023-05-22T10:40:36.236Z,30.03
2023-05-22T10:43:19.516Z,29.30
2023-05-22T10:46:07.224Z,29.66
2023-05-22T10:48:55.619Z,28.99
2023-05-22T10:51:38.871Z,28.96
2023-05-22T10:54:39.833Z,27.05
2023-05-22T10:57:25.451Z,27.33
2023-05-22T11:00:13.909Z,27.18
2023-05-22T11:03:17.353Z,27.16
2023-05-22T11:06:01.975Z,27.52
2023-05-22T11:08:44.853Z,27.08
2023-05-22T11:11:29.809Z,26.51
2023-05-22T11:14:14.115Z,26.09
2023-05-22T11:17:01.164Z,25.88
2023-05-22T11:19:44.224Z,26.36
2023-05-22T11:22:32.319Z,25.40
2023-05-22T11:25:18.463Z,25.79
2023-05-22T11:28:04.447Z,25.06
2023-05-22T11:30:47.752Z,25.22
2023-05-22T11:33:30.715Z,25.01
2023-05-22T11:36:14.158Z,24.31
2023-05-22T11:38:59.519Z,24.64
2023-05-22T11:41:42.405Z,24.20
2023-05-22T11:44:28.084Z,23.76
2023-05-22T11:47:11.522Z,23.40
2023-05-22T11:49:55.329Z,23.11
2023-05-22T11:52:41.022Z,22.88
2023-05-22T11:55:24.293Z,23.31
2023-05-22T11:58:07.318Z,22.67
2023-05-22T12:00:51.562Z,22.26
2023-05-22T12:03:34.683Z,22.52
2023-05-22T12:06:19.211Z,21.94
2023-05-22T12:09:02.910Z,22.19
2023-05-22T12:11:47.744Z,22.42
2023-05-22T12:14:32.331Z,22.60
2023-05-22T12:17:18.377Z,23.08
2023-05-22T12:20:01.321Z,21.44
2023-05-22T12:22:45.181Z,22.01
2023-05-22T12:25:34.887Z,21.35
2023-05-22T12:28:17.751Z,21.36
2023-05-22T12:31:00.762Z,21.58
2023-05-22T12:33:45.511Z,21.94
2023-05-22T12:36:40.276Z,20.71
2023-05-22T12:39:23.246Z,21.54
2023-05-22T12:42:08.623Z,21.91
2023-05-22T12:44:54.688Z,21.38
2023-05-22T12:47:37.815Z,21.34
2023-05-22T12:50:22.146Z,20.81
2023-05-22T12:53:04.885Z,20.07
2023-05-22T12:55:47.752Z,21.15
2023-05-22T12:58:30.633Z,20.92
2023-05-22T13:01:13.656Z,20.75
2023-05-22T13:03:56.538Z,21.12
2023-05-22T13:06:40.743Z,21.45
2023-05-22T13:09:23.823Z,20.75
2023-05-22T13:12:08.442Z,21.07
2023-05-22T13:14:51.287Z,20.63
2023-05-22T13:17:34.162Z,20.80
2023-05-22T13:20:17.075Z,20.40
2023-05-22T13:23:01.307Z,20.17
2023-05-22T13:25:44.216Z,20.38
2023-05-22T13:28:27.019Z,20.08
2023-05-22T13:31:09.968Z,19.87
2023-05-22T13:33:52.901Z,20.06
2023-05-22T13:36:35.966Z,19.95
2023-05-22T13:39:20.270Z,20.01
2023-05-22T13:42:03.168Z,19.20
2023-05-22T13:44:46.725Z,20.59
2023-05-22T13:47:29.648Z,20.75
2023-05-22T13:50:12.560Z,20.15
2023-05-22T13:52:55.680Z,20.54
2023-05-22T13:55:40.009Z,19.77
2023-05-22T13:58:23.133Z,19.23
2023-05-22T14:01:06.106Z,19.10
2023-05-22T14:03:49.693Z,18.64
2023-05-22T14:06:32.733Z,18.95
2023-05-22T14:09:15.929Z,18.27
2023-05-22T14:12:00.299Z,19.09
2023-05-22T14:14:43.752Z,19.71
2023-05-22T14:17:27.801Z,19.44
2023-05-22T14:20:11.756Z,19.25
2023-05-22T14:22:57.675Z,19.39
2023-05-22T14:25:42.951Z,19.47
2023-05-22T14:28:27.391Z,18.77
2023-05-22T14:31:11.584Z,18.72
2023-05-22T14:33:54.648Z,18.96
2023-05-22T14:36:37.702Z,19.40
2023-05-22T14:39:20.773Z,19.15
2023-05-22T14:42:03.877Z,19.14
2023-05-22T14:44:48.290Z,19.56
2023-05-22T14:47:31.612Z,18.79
2023-05-22T14:50:19.533Z,18.78
2023-05-22T14:53:03.615Z,19.13
2023-05-22T14:55:46.458Z,19.65
2023-05-22T14:58:29.342Z,20.22
2023-05-22T15:01:13.976Z,19.68
2023-05-22T15:03:56.976Z,19.86
2023-05-22T15:06:39.950Z,19.75
2023-05-22T15:09:23.676Z,20.05
2023-05-22T15:12:07.238Z,20.10
2023-05-22T15:14:50.100Z,20.55
2023-05-22T15:17:34.350Z,20.93
2023-05-22T15:20:17.619Z,20.53
2023-05-22T15:23:00.741Z,20.68
2023-05-22T15:25:44.794Z,21.21
2023-05-22T15:28:27.762Z,21.92
2023-05-22T15:31:10.642Z,21.26
2023-05-22T15:33:56.849Z,21.58
2023-05-22T15:36:40.331Z,21.32
2023-05-22T15:39:23.255Z,21.78
2023-05-22T15:42:07.110Z,21.50
2023-05-22T15:44:50.922Z,21.46
2023-05-22T15:47:33.932Z,21.97
2023-05-22T15:50:18.313Z,22.57
2023-05-22T15:53:01.550Z,21.39
2023-05-22T15:55:44.880Z,21.47
2023-05-22T15:58:28.487Z,21.22
2023-05-22T16:01:12.236Z,21.58
2023-05-22T16:03:55.123Z,22.12
2023-05-22T16:06:39.996Z,21.96
2023-05-22T16:09:23.014Z,21.95
2023-05-22T16:12:07.539Z,22.44
2023-05-22T16:14:50.908Z,22.79
2023-05-22T16:17:34.113Z,22.33
2023-05-22T16:20:17.350Z,22.86
2023-05-22T16:23:01.665Z,22.84
2023-05-22T16:25:44.431Z,22.85
2023-05-22T16:28:27.444Z,23.44
2023-05-22T16:31:10.454Z,23.50
2023-05-22T16:33:54.034Z,23.23
2023-05-22T16:36:37.673Z,23.55
2023-05-22T16:39:21.926Z,23.96
2023-05-22T16:42:05.267Z,23.49
2023-05-22T16:44:48.131Z,23.70
2023-05-22T16:47:31.155Z,23.81
2023-05-22T16:50:14.283Z,23.48
2023-05-22T16:52:57.174Z,23.58
2023-05-22T16:55:41.855Z,24.05
2023-05-22T16:58:24.871Z,24.00
2023-05-22T17:01:08.332Z,24.21
2023-05-22T17:03:51.362Z,24.39
2023-05-22T17:06:35.450Z,24.56
2023-05-22T17:09:18.451Z,24.77
2023-05-22T17:12:02.626Z,25.07
2023-05-22T17:14:45.798Z,24.86
2023-05-22T17:17:28.661Z,24.93
2023-05-22T17:20:12.723Z,24.92
2023-05-22T17:22:55.564Z,25.32
2023-05-22T17:25:38.700Z,25.23
2023-05-22T17:28:23.011Z,25.55
2023-05-22T17:31:06.385Z,25.61
2023-05-22T17:33:49.346Z,25.75
2023-05-22T17:36:33.204Z,25.61
2023-05-22T17:39:15.984Z,25.70
2023-05-22T17:42:00.363Z,25.84
2023-05-22T17:44:44.644Z,26.55
2023-05-22T17:47:27.597Z,26.18
2023-05-22T17:50:11.574Z,26.63
2023-05-22T17:52:54.536Z,26.84
2023-05-22T17:55:37.395Z,27.03
2023-05-22T17:58:21.082Z,27.36
2023-05-22T18:01:05.408Z,27.28
2023-05-22T18:03:48.307Z,27.67
2023-05-22T18:06:32.080Z,27.77
2023-05-22T18:09:15.116Z,27.83
2023-05-22T18:11:59.116Z,28.04
2023-05-22T18:14:42.036Z,28.18
2023-05-22T18:17:26.519Z,28.87
2023-05-22T18:20:12.013Z,29.15
2023-05-22T18:22:54.815Z,29.65
2023-05-22T18:25:37.676Z,29.93
2023-05-22T18:28:23.501Z,30.37
2023-05-22T18:31:06.450Z,30.25
2023-05-22T18:33:51.115Z,30.80
2023-05-22T18:36:35.266Z,31.05
2023-05-22T18:39:18.094Z,31.22
2023-05-22T18:42:01.132Z,31.63
2023-05-22T18:44:46.300Z,31.74
2023-05-22T18:47:31.044Z,32.01
2023-05-22T18:50:15.428Z,32.02
2023-05-22T18:52:58.306Z,32.23
2023-05-22T18:55:41.925Z,32.15
2023-05-22T18:58:25.867Z,32.55
2023-05-22T19:01:08.809Z,32.80
2023-05-22T19:03:51.633Z,32.70
2023-05-22T19:06:36.703Z,33.02
2023-05-22T19:09:19.500Z,33.38
2023-05-22T19:12:02.824Z,33.41
2023-05-22T19:14:48.201Z,33.56
2023-05-22T19:17:31.042Z,34.23
2023-05-22T19:20:13.974Z,34.37
2023-05-22T19:22:58.461Z,34.91
2023-05-22T19:25:41.322Z,35.23
2023-05-22T19:28:25.854Z,35.20
2023-05-22T19:31:08.755Z,34.89
2023-05-22T19:33:51.904Z,35.53
2023-05-22T19:36:36.127Z,35.37
2023-05-22T19:39:21.127Z,35.48
2023-05-22T19:42:04.095Z,35.51
2023-05-22T19:44:48.169Z,35.35
2023-05-22T19:47:31.174Z,35.55
2023-05-22T19:50:14.122Z,36.09
2023-05-22T19:52:57.004Z,36.40
2023-05-22T19:55:42.193Z,36.09
2023-05-22T19:58:25.040Z,36.31
2023-05-22T20:01:08.686Z,36.74
2023-05-22T20:03:51.959Z,36.93
2023-05-22T20:06:35.094Z,36.84
2023-05-22T20:09:18.036Z,36.64
2023-05-22T20:12:02.407Z,37.35
2023-05-22T20:14:45.203Z,37.17
2023-05-22T20:17:28.192Z,37.43
2023-05-22T20:20:12.151Z,37.29
2023-05-22T20:22:56.162Z,38.73
2023-05-22T20:25:39.189Z,37.96
2023-05-22T20:28:23.776Z,38.05
2023-05-22T20:31:06.836Z,38.45
2023-05-22T20:33:49.701Z,38.58
2023-05-22T20:36:33.444Z,38.58
2023-05-22T20:39:18.132Z,38.65
2023-05-22T20:42:02.718Z,38.35
2023-05-22T20:44:47.773Z,39.09
2023-05-22T20:47:31.007Z,39.19
2023-05-22T20:50:14.173Z,39.69
2023-05-22T20:53:00.165Z,39.49
2023-05-22T20:55:43.873Z,39.06
2023-05-22T20:58:27.329Z,39.67
2023-05-22T21:01:12.391Z,39.15
2023-05-22T21:03:56.438Z,39.26
2023-05-22T21:06:40.332Z,39.50
2023-05-22T21:09:23.218Z,39.10
2023-05-22T21:12:06.355Z,39.19
2023-05-22T21:14:49.292Z,39.47
2023-05-22T21:17:33.455Z,39.33
2023-05-22T21:20:16.432Z,39.77
2023-05-22T21:22:59.354Z,39.81
2023-05-22T21:25:42.483Z,40.11
2023-05-22T21:28:25.323Z,40.93
2023-05-22T21:31:08.173Z,40.63
2023-05-22T21:33:52.401Z,40.52
2023-05-22T21:36:35.222Z,40.65
2023-05-22T21:39:18.298Z,40.95
2023-05-22T21:42:01.185Z,41.32
2023-05-22T21:44:44.015Z,40.92
2023-05-22T21:47:27.244Z,41.24
2023-05-22T21:50:12.443Z,41.23
2023-05-22T21:52:55.287Z,41.59
2023-05-22T21:55:38.327Z,41.60
2023-05-22T21:58:21.587Z,41.58
2023-05-22T22:01:04.595Z,41.89
2023-05-22T22:03:47.474Z,42.20
2023-05-22T22:06:32.264Z,42.18
2023-05-22T22:09:15.180Z,42.10
2023-05-22T22:11:58.237Z,42.28
2023-05-22T22:14:41.173Z,42.91
2023-05-22T22:17:24.131Z,42.70
2023-05-22T22:20:09.191Z,42.76
2023-05-22T22:22:53.399Z,42.57
2023-05-22T22:25:36.323Z,42.87
2023-05-22T22:28:19.227Z,42.87
2023-05-22T22:31:02.082Z,42.91
2023-05-22T22:33:44.904Z,43.01
2023-05-22T22:36:27.878Z,43.45
2023-05-22T22:39:12.245Z,43.59
2023-05-22T22:41:55.119Z,43.92
2023-05-22T22:44:37.967Z,43.93
2023-05-22T22:47:22.022Z,43.80
2023-05-22T22:50:05.629Z,44.02
2023-05-22T22:52:48.499Z,43.94
2023-05-22T22:55:32.876Z,43.72
2023-05-22T22:58:18.702Z,44.28
2023-05-22T23:01:02.670Z,44.34
2023-05-22T23:03:45.614Z,44.78
2023-05-22T23:06:29.690Z,44.76
2023-05-22T23:09:12.735Z,44.92
2023-05-22T23:11:56.930Z,45.37
2023-05-22T23:14:39.756Z,45.55
2023-05-22T23:17:22.654Z,45.77
2023-05-22T23:20:06.477Z,45.78
2023-05-22T23:22:49.301Z,46.36
2023-05-22T23:25:32.198Z,46.24
2023-05-22T23:28:16.902Z,46.53
2023-05-22T23:30:59.769Z,46.23
2023-05-22T23:33:42.816Z,46.26
2023-05-22T23:36:26.079Z,46.42
2023-05-22T23:39:09.066Z,46.42
2023-05-22T23:41:54.147Z,46.60
2023-05-22T23:44:38.486Z,47.00
2023-05-22T23:47:21.409Z,47.03
2023-05-22T23:50:04.653Z,47.26
2023-05-22T23:52:48.445Z,47.36
2023-05-22T23:55:31.381Z,47.45
2023-05-22T23:58:15.908Z,47.56
